sensor_id;sensor_type;location;lat;lon;timestamp;temperature;humidity
4501;DHT22;2263;54.654;9.410;2023-04-29T00:02:23;10.40;79.10
4501;DHT22;2263;54.654;9.410;2023-04-29T00:04:51;10.40;79.10
4501;DHT22;2263;54.654;9.410;2023-04-29T00:07:19;10.40;79.20
4501;DHT22;2263;54.654;9.410;2023-04-29T00:09:47;10.30;79.10
4501;DHT22;2263;54.654;9.410;2023-04-29T00:12:14;10.30;79.00
4501;DHT22;2263;54.654;9.410;2023-04-29T00:14:42;10.30;79.00
4501;DHT22;2263;54.654;9.410;2023-04-29T00:17:09;10.30;78.90
4501;DHT22;2263;54.654;9.410;2023-04-29T00:19:37;10.30;78.70
4501;DHT22;2263;54.654;9.410;2023-04-29T00:22:05;10.30;78.60
4501;DHT22;2263;54.654;9.410;2023-04-29T00:24:32;10.30;78.80
4501;DHT22;2263;54.654;9.410;2023-04-29T00:27:00;10.30;78.70
4501;DHT22;2263;54.654;9.410;2023-04-29T00:29:28;10.30;78.60
4501;DHT22;2263;54.654;9.410;2023-04-29T00:31:56;10.30;78.70
4501;DHT22;2263;54.654;9.410;2023-04-29T00:34:24;10.20;78.80
4501;DHT22;2263;54.654;9.410;2023-04-29T00:36:51;10.20;78.90
4501;DHT22;2263;54.654;9.410;2023-04-29T00:39:19;10.20;78.70
4501;DHT22;2263;54.654;9.410;2023-04-29T00:41:46;10.20;78.50
4501;DHT22;2263;54.654;9.410;2023-04-29T00:44:14;10.20;78.80
4501;DHT22;2263;54.654;9.410;2023-04-29T00:46:42;10.20;79.00
4501;DHT22;2263;54.654;9.410;2023-04-29T00:49:10;10.20;78.70
4501;DHT22;2263;54.654;9.410;2023-04-29T00:51:40;10.20;78.50
4501;DHT22;2263;54.654;9.410;2023-04-29T00:54:07;10.20;79.00
4501;DHT22;2263;54.654;9.410;2023-04-29T00:56:36;10.20;79.00
4501;DHT22;2263;54.654;9.410;2023-04-29T00:59:06;10.20;79.20
4501;DHT22;2263;54.654;9.410;2023-04-29T01:01:38;10.20;79.20
4501;DHT22;2263;54.654;9.410;2023-04-29T01:04:06;10.20;79.10
4501;DHT22;2263;54.654;9.410;2023-04-29T01:14:44;10.20;79.50
4501;DHT22;2263;54.654;9.410;2023-04-29T01:17:17;10.20;79.40
4501;DHT22;2263;54.654;9.410;2023-04-29T01:19:54;10.10;79.30
4501;DHT22;2263;54.654;9.410;2023-04-29T01:22:23;10.10;79.10
4501;DHT22;2263;54.654;9.410;2023-04-29T01:24:50;10.10;79.20
4501;DHT22;2263;54.654;9.410;2023-04-29T01:27:40;10.10;79.00
4501;DHT22;2263;54.654;9.410;2023-04-29T01:33:16;10.00;78.80
4501;DHT22;2263;54.654;9.410;2023-04-29T01:42:36;10.00;78.60
4501;DHT22;2263;54.654;9.410;2023-04-29T01:44:38;10.00;78.30
4501;DHT22;2263;54.654;9.410;2023-04-29T01:47:09;10.00;78.50
4501;DHT22;2263;54.654;9.410;2023-04-29T01:49:38;9.90;79.40
4501;DHT22;2263;54.654;9.410;2023-04-29T01:52:06;9.90;79.30
4501;DHT22;2263;54.654;9.410;2023-04-29T01:54:33;9.90;79.20
4501;DHT22;2263;54.654;9.410;2023-04-29T01:57:04;9.90;79.30
4501;DHT22;2263;54.654;9.410;2023-04-29T01:59:32;9.90;79.00
4501;DHT22;2263;54.654;9.410;2023-04-29T02:01:59;9.90;79.30
4501;DHT22;2263;54.654;9.410;2023-04-29T02:04:27;9.90;79.10
4501;DHT22;2263;54.654;9.410;2023-04-29T02:06:54;9.80;79.10
4501;DHT22;2263;54.654;9.410;2023-04-29T02:09:22;9.80;78.90
4501;DHT22;2263;54.654;9.410;2023-04-29T02:11:49;9.80;79.10
4501;DHT22;2263;54.654;9.410;2023-04-29T02:14:17;9.80;79.50
4501;DHT22;2263;54.654;9.410;2023-04-29T02:16:44;9.80;79.00
4501;DHT22;2263;54.654;9.410;2023-04-29T02:19:12;9.80;79.10
4501;DHT22;2263;54.654;9.410;2023-04-29T02:21:40;9.80;79.10
4501;DHT22;2263;54.654;9.410;2023-04-29T02:24:07;9.80;78.90
4501;DHT22;2263;54.654;9.410;2023-04-29T02:26:35;9.80;78.80
4501;DHT22;2263;54.654;9.410;2023-04-29T02:29:04;9.80;78.90
4501;DHT22;2263;54.654;9.410;2023-04-29T02:31:32;9.70;78.70
4501;DHT22;2263;54.654;9.410;2023-04-29T02:33:59;9.70;79.00
4501;DHT22;2263;54.654;9.410;2023-04-29T02:36:27;9.70;79.00
4501;DHT22;2263;54.654;9.410;2023-04-29T02:38:54;9.70;78.90
4501;DHT22;2263;54.654;9.410;2023-04-29T02:41:22;9.70;78.70
4501;DHT22;2263;54.654;9.410;2023-04-29T02:43:51;9.70;78.80
4501;DHT22;2263;54.654;9.410;2023-04-29T02:46:19;9.70;78.80
4501;DHT22;2263;54.654;9.410;2023-04-29T02:48:47;9.70;78.80
4501;DHT22;2263;54.654;9.410;2023-04-29T02:51:14;9.70;78.90
4501;DHT22;2263;54.654;9.410;2023-04-29T02:53:45;9.70;78.70
4501;DHT22;2263;54.654;9.410;2023-04-29T02:56:12;9.60;78.60
4501;DHT22;2263;54.654;9.410;2023-04-29T02:58:40;9.60;78.80
4501;DHT22;2263;54.654;9.410;2023-04-29T03:01:11;9.70;78.90
4501;DHT22;2263;54.654;9.410;2023-04-29T03:03:39;9.60;79.50
4501;DHT22;2263;54.654;9.410;2023-04-29T03:06:07;9.60;78.80
4501;DHT22;2263;54.654;9.410;2023-04-29T03:08:37;9.60;78.70
4501;DHT22;2263;54.654;9.410;2023-04-29T03:11:05;9.60;78.70
4501;DHT22;2263;54.654;9.410;2023-04-29T03:13:33;9.60;78.80
4501;DHT22;2263;54.654;9.410;2023-04-29T03:16:00;9.60;78.80
4501;DHT22;2263;54.654;9.410;2023-04-29T03:18:28;9.60;78.80
4501;DHT22;2263;54.654;9.410;2023-04-29T03:20:56;9.60;79.00
4501;DHT22;2263;54.654;9.410;2023-04-29T03:23:23;9.60;78.90
4501;DHT22;2263;54.654;9.410;2023-04-29T03:25:51;9.60;79.00
4501;DHT22;2263;54.654;9.410;2023-04-29T03:28:19;9.60;78.90
4501;DHT22;2263;54.654;9.410;2023-04-29T03:30:46;9.60;79.00
4501;DHT22;2263;54.654;9.410;2023-04-29T03:33:14;9.50;78.80
4501;DHT22;2263;54.654;9.410;2023-04-29T03:35:41;9.50;78.70
4501;DHT22;2263;54.654;9.410;2023-04-29T03:38:13;9.50;78.70
4501;DHT22;2263;54.654;9.410;2023-04-29T03:40:40;9.50;78.80
4501;DHT22;2263;54.654;9.410;2023-04-29T03:43:08;9.50;78.90
4501;DHT22;2263;54.654;9.410;2023-04-29T03:45:35;9.50;79.00
4501;DHT22;2263;54.654;9.410;2023-04-29T03:48:03;9.50;79.00
4501;DHT22;2263;54.654;9.410;2023-04-29T03:50:31;9.50;78.90
4501;DHT22;2263;54.654;9.410;2023-04-29T03:52:59;9.50;79.00
4501;DHT22;2263;54.654;9.410;2023-04-29T03:55:26;9.50;79.10
4501;DHT22;2263;54.654;9.410;2023-04-29T03:57:55;9.50;79.00
4501;DHT22;2263;54.654;9.410;2023-04-29T04:00:22;9.50;79.20
4501;DHT22;2263;54.654;9.410;2023-04-29T04:02:52;9.40;79.10
4501;DHT22;2263;54.654;9.410;2023-04-29T04:05:20;9.40;79.10
4501;DHT22;2263;54.654;9.410;2023-04-29T04:07:51;9.40;79.10
4501;DHT22;2263;54.654;9.410;2023-04-29T04:10:19;9.40;79.30
4501;DHT22;2263;54.654;9.410;2023-04-29T04:12:46;9.40;79.30
4501;DHT22;2263;54.654;9.410;2023-04-29T04:15:14;9.40;79.20
4501;DHT22;2263;54.654;9.410;2023-04-29T04:17:43;9.40;79.30
4501;DHT22;2263;54.654;9.410;2023-04-29T04:20:16;9.40;79.50
4501;DHT22;2263;54.654;9.410;2023-04-29T04:22:44;9.40;79.40
4501;DHT22;2263;54.654;9.410;2023-04-29T04:25:11;9.40;79.40
4501;DHT22;2263;54.654;9.410;2023-04-29T04:27:39;9.40;79.40
4501;DHT22;2263;54.654;9.410;2023-04-29T04:30:07;9.40;79.30
4501;DHT22;2263;54.654;9.410;2023-04-29T04:32:35;9.40;79.70
4501;DHT22;2263;54.654;9.410;2023-04-29T04:35:03;9.40;79.70
4501;DHT22;2263;54.654;9.410;2023-04-29T04:37:30;9.40;79.40
4501;DHT22;2263;54.654;9.410;2023-04-29T04:39:58;9.40;79.40
4501;DHT22;2263;54.654;9.410;2023-04-29T04:42:25;9.40;79.50
4501;DHT22;2263;54.654;9.410;2023-04-29T04:44:53;9.40;79.40
4501;DHT22;2263;54.654;9.410;2023-04-29T04:47:21;9.40;79.30
4501;DHT22;2263;54.654;9.410;2023-04-29T04:49:48;9.40;79.50
4501;DHT22;2263;54.654;9.410;2023-04-29T04:52:19;9.40;79.50
4501;DHT22;2263;54.654;9.410;2023-04-29T04:54:47;9.30;79.50
4501;DHT22;2263;54.654;9.410;2023-04-29T04:57:15;9.40;79.50
4501;DHT22;2263;54.654;9.410;2023-04-29T04:59:42;9.30;79.50
4501;DHT22;2263;54.654;9.410;2023-04-29T05:02:10;9.30;79.50
4501;DHT22;2263;54.654;9.410;2023-04-29T05:04:38;9.30;79.50
4501;DHT22;2263;54.654;9.410;2023-04-29T05:07:05;9.30;79.60
4501;DHT22;2263;54.654;9.410;2023-04-29T05:09:33;9.30;79.70
4501;DHT22;2263;54.654;9.410;2023-04-29T05:12:01;9.30;79.60
4501;DHT22;2263;54.654;9.410;2023-04-29T05:14:28;9.30;79.60
4501;DHT22;2263;54.654;9.410;2023-04-29T05:16:59;9.30;79.60
4501;DHT22;2263;54.654;9.410;2023-04-29T05:19:27;9.30;79.70
4501;DHT22;2263;54.654;9.410;2023-04-29T05:21:54;9.30;79.80
4501;DHT22;2263;54.654;9.410;2023-04-29T05:24:22;9.30;79.80
4501;DHT22;2263;54.654;9.410;2023-04-29T05:26:50;9.30;79.80
4501;DHT22;2263;54.654;9.410;2023-04-29T05:29:18;9.30;79.70
4501;DHT22;2263;54.654;9.410;2023-04-29T05:31:45;9.30;79.70
4501;DHT22;2263;54.654;9.410;2023-04-29T05:34:14;9.30;79.50
4501;DHT22;2263;54.654;9.410;2023-04-29T05:36:41;9.30;79.40
4501;DHT22;2263;54.654;9.410;2023-04-29T05:39:09;9.30;79.50
4501;DHT22;2263;54.654;9.410;2023-04-29T05:41:36;9.30;79.40
4501;DHT22;2263;54.654;9.410;2023-04-29T05:44:04;9.30;79.50
4501;DHT22;2263;54.654;9.410;2023-04-29T05:46:31;9.30;79.60
4501;DHT22;2263;54.654;9.410;2023-04-29T05:48:59;9.30;79.50
4501;DHT22;2263;54.654;9.410;2023-04-29T05:51:27;9.30;79.50
4501;DHT22;2263;54.654;9.410;2023-04-29T05:53:54;9.30;79.50
4501;DHT22;2263;54.654;9.410;2023-04-29T05:56:22;9.30;79.60
4501;DHT22;2263;54.654;9.410;2023-04-29T05:58:50;9.30;79.50
4501;DHT22;2263;54.654;9.410;2023-04-29T06:01:18;9.30;79.70
4501;DHT22;2263;54.654;9.410;2023-04-29T06:03:45;9.30;79.60
4501;DHT22;2263;54.654;9.410;2023-04-29T06:06:13;9.30;79.60
4501;DHT22;2263;54.654;9.410;2023-04-29T06:08:41;9.30;79.60
4501;DHT22;2263;54.654;9.410;2023-04-29T06:11:09;9.30;79.60
4501;DHT22;2263;54.654;9.410;2023-04-29T06:13:36;9.30;79.70
4501;DHT22;2263;54.654;9.410;2023-04-29T06:16:04;9.30;79.70
4501;DHT22;2263;54.654;9.410;2023-04-29T06:18:32;9.30;79.70
4501;DHT22;2263;54.654;9.410;2023-04-29T06:20:59;9.30;79.70
4501;DHT22;2263;54.654;9.410;2023-04-29T06:23:27;9.40;79.80
4501;DHT22;2263;54.654;9.410;2023-04-29T06:25:55;9.40;79.70
4501;DHT22;2263;54.654;9.410;2023-04-29T06:28:22;9.40;79.80
4501;DHT22;2263;54.654;9.410;2023-04-29T06:30:53;9.40;79.80
4501;DHT22;2263;54.654;9.410;2023-04-29T06:33:21;9.40;79.70
4501;DHT22;2263;54.654;9.410;2023-04-29T06:35:48;9.40;79.90
4501;DHT22;2263;54.654;9.410;2023-04-29T06:38:16;9.40;80.00
4501;DHT22;2263;54.654;9.410;2023-04-29T06:40:43;9.40;79.90
4501;DHT22;2263;54.654;9.410;2023-04-29T06:43:11;9.40;80.50
4501;DHT22;2263;54.654;9.410;2023-04-29T06:45:39;9.40;79.90
4501;DHT22;2263;54.654;9.410;2023-04-29T06:48:06;9.40;79.90
4501;DHT22;2263;54.654;9.410;2023-04-29T06:50:34;9.40;80.00
4501;DHT22;2263;54.654;9.410;2023-04-29T06:53:02;9.50;80.00
4501;DHT22;2263;54.654;9.410;2023-04-29T06:55:30;9.50;80.10
4501;DHT22;2263;54.654;9.410;2023-04-29T06:57:58;9.50;80.10
4501;DHT22;2263;54.654;9.410;2023-04-29T07:00:25;9.50;80.10
4501;DHT22;2263;54.654;9.410;2023-04-29T07:02:53;9.50;80.20
4501;DHT22;2263;54.654;9.410;2023-04-29T07:05:21;9.50;80.20
4501;DHT22;2263;54.654;9.410;2023-04-29T07:07:49;9.50;80.10
4501;DHT22;2263;54.654;9.410;2023-04-29T07:10:17;9.50;80.20
4501;DHT22;2263;54.654;9.410;2023-04-29T07:12:44;9.50;80.20
4501;DHT22;2263;54.654;9.410;2023-04-29T07:15:13;9.50;80.20
4501;DHT22;2263;54.654;9.410;2023-04-29T07:17:40;9.50;80.30
4501;DHT22;2263;54.654;9.410;2023-04-29T07:20:08;9.50;80.20
4501;DHT22;2263;54.654;9.410;2023-04-29T07:22:36;9.50;80.20
4501;DHT22;2263;54.654;9.410;2023-04-29T07:25:04;9.50;80.40
4501;DHT22;2263;54.654;9.410;2023-04-29T07:27:33;9.60;80.50
4501;DHT22;2263;54.654;9.410;2023-04-29T07:30:01;9.60;80.40
4501;DHT22;2263;54.654;9.410;2023-04-29T07:32:29;9.60;80.50
4501;DHT22;2263;54.654;9.410;2023-04-29T07:35:00;9.60;80.50
4501;DHT22;2263;54.654;9.410;2023-04-29T07:37:27;9.60;80.40
4501;DHT22;2263;54.654;9.410;2023-04-29T07:39:55;9.60;80.40
4501;DHT22;2263;54.654;9.410;2023-04-29T07:42:22;9.60;80.40
4501;DHT22;2263;54.654;9.410;2023-04-29T07:44:50;9.60;80.50
4501;DHT22;2263;54.654;9.410;2023-04-29T07:47:18;9.60;80.50
4501;DHT22;2263;54.654;9.410;2023-04-29T07:49:45;9.70;80.80
4501;DHT22;2263;54.654;9.410;2023-04-29T07:52:13;9.70;80.50
4501;DHT22;2263;54.654;9.410;2023-04-29T07:54:40;9.80;80.70
4501;DHT22;2263;54.654;9.410;2023-04-29T07:57:08;9.80;80.70
4501;DHT22;2263;54.654;9.410;2023-04-29T07:59:35;9.80;80.70
4501;DHT22;2263;54.654;9.410;2023-04-29T08:02:03;9.90;80.90
4501;DHT22;2263;54.654;9.410;2023-04-29T08:04:30;9.90;80.80
4501;DHT22;2263;54.654;9.410;2023-04-29T08:06:58;9.90;81.00
4501;DHT22;2263;54.654;9.410;2023-04-29T08:09:26;10.00;80.10
4501;DHT22;2263;54.654;9.410;2023-04-29T08:11:53;10.00;80.10
4501;DHT22;2263;54.654;9.410;2023-04-29T08:14:21;10.10;80.20
4501;DHT22;2263;54.654;9.410;2023-04-29T08:16:48;10.10;80.20
4501;DHT22;2263;54.654;9.410;2023-04-29T08:19:16;10.10;80.30
4501;DHT22;2263;54.654;9.410;2023-04-29T08:21:43;10.20;80.40
4501;DHT22;2263;54.654;9.410;2023-04-29T08:24:11;10.20;80.50
4501;DHT22;2263;54.654;9.410;2023-04-29T08:26:41;10.20;80.50
4501;DHT22;2263;54.654;9.410;2023-04-29T08:29:09;10.30;80.60
4501;DHT22;2263;54.654;9.410;2023-04-29T08:31:36;10.30;80.60
4501;DHT22;2263;54.654;9.410;2023-04-29T08:34:04;10.40;80.90
4501;DHT22;2263;54.654;9.410;2023-04-29T08:36:32;10.40;80.70
4501;DHT22;2263;54.654;9.410;2023-04-29T08:38:59;10.50;80.90
4501;DHT22;2263;54.654;9.410;2023-04-29T08:41:27;10.50;80.90
4501;DHT22;2263;54.654;9.410;2023-04-29T08:43:55;10.50;81.00
4501;DHT22;2263;54.654;9.410;2023-04-29T08:46:25;10.70;80.80
4501;DHT22;2263;54.654;9.410;2023-04-29T08:48:56;10.70;80.40
4501;DHT22;2263;54.654;9.410;2023-04-29T08:51:26;10.70;80.40
4501;DHT22;2263;54.654;9.410;2023-04-29T08:53:55;10.70;80.60
4501;DHT22;2263;54.654;9.410;2023-04-29T08:56:23;10.70;80.70
4501;DHT22;2263;54.654;9.410;2023-04-29T08:58:54;10.70;80.70
4501;DHT22;2263;54.654;9.410;2023-04-29T09:01:28;10.80;80.60
4501;DHT22;2263;54.654;9.410;2023-04-29T09:06:50;10.90;80.70
4501;DHT22;2263;54.654;9.410;2023-04-29T09:09:19;10.90;80.70
4501;DHT22;2263;54.654;9.410;2023-04-29T09:11:47;11.00;80.80
4501;DHT22;2263;54.654;9.410;2023-04-29T09:14:15;11.00;80.80
4501;DHT22;2263;54.654;9.410;2023-04-29T09:16:45;11.00;80.60
4501;DHT22;2263;54.654;9.410;2023-04-29T09:19:33;11.10;80.80
4501;DHT22;2263;54.654;9.410;2023-04-29T09:22:03;11.10;81.00
4501;DHT22;2263;54.654;9.410;2023-04-29T09:24:31;11.50;79.20
4501;DHT22;2263;54.654;9.410;2023-04-29T09:26:59;11.70;77.80
4501;DHT22;2263;54.654;9.410;2023-04-29T09:29:27;11.90;77.30
4501;DHT22;2263;54.654;9.410;2023-04-29T09:31:55;12.10;75.80
4501;DHT22;2263;54.654;9.410;2023-04-29T09:34:34;12.20;76.60
4501;DHT22;2263;54.654;9.410;2023-04-29T09:37:04;12.30;76.00
4501;DHT22;2263;54.654;9.410;2023-04-29T09:39:39;12.20;75.80
4501;DHT22;2263;54.654;9.410;2023-04-29T09:42:07;12.30;75.50
4501;DHT22;2263;54.654;9.410;2023-04-29T09:44:35;12.40;76.50
4501;DHT22;2263;54.654;9.410;2023-04-29T09:47:05;12.50;76.30
4501;DHT22;2263;54.654;9.410;2023-04-29T09:52:07;12.70;75.10
4501;DHT22;2263;54.654;9.410;2023-04-29T09:54:37;12.80;73.60
4501;DHT22;2263;54.654;9.410;2023-04-29T09:57:07;12.90;73.90
4501;DHT22;2263;54.654;9.410;2023-04-29T09:59:36;13.00;73.00
4501;DHT22;2263;54.654;9.410;2023-04-29T10:02:16;12.90;71.60
4501;DHT22;2263;54.654;9.410;2023-04-29T10:04:50;12.90;72.70
4501;DHT22;2263;54.654;9.410;2023-04-29T10:07:18;13.00;72.70
4501;DHT22;2263;54.654;9.410;2023-04-29T10:09:47;13.20;71.00
4501;DHT22;2263;54.654;9.410;2023-04-29T10:12:16;13.20;70.10
4501;DHT22;2263;54.654;9.410;2023-04-29T10:14:56;13.00;71.50
4501;DHT22;2263;54.654;9.410;2023-04-29T10:17:45;12.90;73.20
4501;DHT22;2263;54.654;9.410;2023-04-29T10:20:14;12.90;72.30
4501;DHT22;2263;54.654;9.410;2023-04-29T10:22:47;12.90;72.90
4501;DHT22;2263;54.654;9.410;2023-04-29T10:25:17;12.90;73.90
4501;DHT22;2263;54.654;9.410;2023-04-29T10:27:46;12.90;74.60
4501;DHT22;2263;54.654;9.410;2023-04-29T10:30:18;12.90;75.20
4501;DHT22;2263;54.654;9.410;2023-04-29T10:32:47;12.90;75.70
4501;DHT22;2263;54.654;9.410;2023-04-29T10:35:19;12.90;75.80
4501;DHT22;2263;54.654;9.410;2023-04-29T10:37:50;12.90;76.10
4501;DHT22;2263;54.654;9.410;2023-04-29T10:40:43;12.90;76.10
4501;DHT22;2263;54.654;9.410;2023-04-29T10:43:15;12.90;76.20
4501;DHT22;2263;54.654;9.410;2023-04-29T10:45:42;13.00;76.50
4501;DHT22;2263;54.654;9.410;2023-04-29T10:48:11;13.10;76.20
4501;DHT22;2263;54.654;9.410;2023-04-29T10:53:19;13.10;76.60
4501;DHT22;2263;54.654;9.410;2023-04-29T10:55:52;13.20;75.70
4501;DHT22;2263;54.654;9.410;2023-04-29T10:58:37;13.20;76.30
4501;DHT22;2263;54.654;9.410;2023-04-29T11:01:06;13.20;76.60
4501;DHT22;2263;54.654;9.410;2023-04-29T11:06:23;13.20;76.90
4501;DHT22;2263;54.654;9.410;2023-04-29T11:12:03;13.30;77.10
4501;DHT22;2263;54.654;9.410;2023-04-29T11:14:49;13.30;77.30
4501;DHT22;2263;54.654;9.410;2023-04-29T11:17:18;13.30;77.30
4501;DHT22;2263;54.654;9.410;2023-04-29T11:19:49;13.30;77.30
4501;DHT22;2263;54.654;9.410;2023-04-29T11:24:54;13.40;77.30
4501;DHT22;2263;54.654;9.410;2023-04-29T11:28:00;13.40;77.20
4501;DHT22;2263;54.654;9.410;2023-04-29T11:30:22;13.40;77.30
4501;DHT22;2263;54.654;9.410;2023-04-29T11:32:49;13.40;77.30
4501;DHT22;2263;54.654;9.410;2023-04-29T11:35:18;13.40;77.30
4501;DHT22;2263;54.654;9.410;2023-04-29T11:37:46;13.40;77.30
4501;DHT22;2263;54.654;9.410;2023-04-29T11:40:14;13.40;77.20
4501;DHT22;2263;54.654;9.410;2023-04-29T11:42:45;13.40;77.20
4501;DHT22;2263;54.654;9.410;2023-04-29T11:45:13;13.40;77.30
4501;DHT22;2263;54.654;9.410;2023-04-29T11:47:43;13.40;77.20
4501;DHT22;2263;54.654;9.410;2023-04-29T11:50:13;13.40;77.30
4501;DHT22;2263;54.654;9.410;2023-04-29T11:52:43;13.40;77.40
4501;DHT22;2263;54.654;9.410;2023-04-29T11:55:12;13.40;77.50
4501;DHT22;2263;54.654;9.410;2023-04-29T11:57:40;13.40;77.60
4501;DHT22;2263;54.654;9.410;2023-04-29T12:00:12;13.50;77.20
4501;DHT22;2263;54.654;9.410;2023-04-29T12:02:44;13.50;77.20
4501;DHT22;2263;54.654;9.410;2023-04-29T12:05:15;13.60;77.50
4501;DHT22;2263;54.654;9.410;2023-04-29T12:07:44;13.60;77.60
4501;DHT22;2263;54.654;9.410;2023-04-29T12:10:11;13.70;77.80
4501;DHT22;2263;54.654;9.410;2023-04-29T12:12:39;13.70;77.70
4501;DHT22;2263;54.654;9.410;2023-04-29T12:15:10;13.90;77.10
4501;DHT22;2263;54.654;9.410;2023-04-29T12:17:39;13.90;77.30
4501;DHT22;2263;54.654;9.410;2023-04-29T12:20:09;13.90;77.50
4501;DHT22;2263;54.654;9.410;2023-04-29T12:22:38;13.80;77.70
4501;DHT22;2263;54.654;9.410;2023-04-29T12:25:06;13.80;77.80
4501;DHT22;2263;54.654;9.410;2023-04-29T12:27:35;13.80;77.20
4501;DHT22;2263;54.654;9.410;2023-04-29T12:30:06;13.90;77.90
4501;DHT22;2263;54.654;9.410;2023-04-29T12:32:36;13.80;77.20
4501;DHT22;2263;54.654;9.410;2023-04-29T12:35:04;13.80;77.30
4501;DHT22;2263;54.654;9.410;2023-04-29T12:37:33;13.80;77.40
4501;DHT22;2263;54.654;9.410;2023-04-29T12:40:01;13.80;77.40
4501;DHT22;2263;54.654;9.410;2023-04-29T12:42:32;13.90;77.60
4501;DHT22;2263;54.654;9.410;2023-04-29T12:45:03;13.90;77.50
4501;DHT22;2263;54.654;9.410;2023-04-29T12:47:32;13.80;77.30
4501;DHT22;2263;54.654;9.410;2023-04-29T12:50:05;13.90;77.50
4501;DHT22;2263;54.654;9.410;2023-04-29T12:52:33;13.90;77.50
4501;DHT22;2263;54.654;9.410;2023-04-29T12:55:03;13.90;77.40
4501;DHT22;2263;54.654;9.410;2023-04-29T12:57:33;13.90;77.30
4501;DHT22;2263;54.654;9.410;2023-04-29T13:00:01;13.90;77.50
4501;DHT22;2263;54.654;9.410;2023-04-29T13:02:30;13.90;77.30
4501;DHT22;2263;54.654;9.410;2023-04-29T13:04:57;13.90;77.40
4501;DHT22;2263;54.654;9.410;2023-04-29T13:07:25;14.00;77.50
4501;DHT22;2263;54.654;9.410;2023-04-29T13:09:53;14.00;77.20
4501;DHT22;2263;54.654;9.410;2023-04-29T13:12:21;14.10;77.40
4501;DHT22;2263;54.654;9.410;2023-04-29T13:14:49;14.10;77.40
4501;DHT22;2263;54.654;9.410;2023-04-29T13:17:17;14.10;77.20
4501;DHT22;2263;54.654;9.410;2023-04-29T13:19:45;14.20;77.30
4501;DHT22;2263;54.654;9.410;2023-04-29T13:22:18;14.20;77.30
4501;DHT22;2263;54.654;9.410;2023-04-29T13:24:45;14.20;77.20
4501;DHT22;2263;54.654;9.410;2023-04-29T13:27:13;14.20;76.90
4501;DHT22;2263;54.654;9.410;2023-04-29T13:29:41;14.30;77.00
4501;DHT22;2263;54.654;9.410;2023-04-29T13:32:08;14.30;76.80
4501;DHT22;2263;54.654;9.410;2023-04-29T13:34:39;14.30;76.80
4501;DHT22;2263;54.654;9.410;2023-04-29T13:37:10;14.30;76.80
4501;DHT22;2263;54.654;9.410;2023-04-29T13:39:37;14.30;70.80
4501;DHT22;2263;54.654;9.410;2023-04-29T13:42:05;14.20;73.90
4501;DHT22;2263;54.654;9.410;2023-04-29T13:44:35;14.30;75.00
4501;DHT22;2263;54.654;9.410;2023-04-29T13:47:18;14.30;75.10
4501;DHT22;2263;54.654;9.410;2023-04-29T13:49:52;14.30;74.70
4501;DHT22;2263;54.654;9.410;2023-04-29T13:52:40;14.30;74.90
4501;DHT22;2263;54.654;9.410;2023-04-29T13:55:10;14.30;75.30
4501;DHT22;2263;54.654;9.410;2023-04-29T13:57:41;14.30;75.40
4501;DHT22;2263;54.654;9.410;2023-04-29T14:00:12;14.40;74.70
4501;DHT22;2263;54.654;9.410;2023-04-29T14:02:59;14.40;74.40
4501;DHT22;2263;54.654;9.410;2023-04-29T14:05:32;14.40;75.40
4501;DHT22;2263;54.654;9.410;2023-04-29T14:07:59;14.50;69.10
4501;DHT22;2263;54.654;9.410;2023-04-29T14:10:27;14.60;66.90
4501;DHT22;2263;54.654;9.410;2023-04-29T14:12:55;14.50;70.00
4501;DHT22;2263;54.654;9.410;2023-04-29T14:15:22;14.40;71.10
4501;DHT22;2263;54.654;9.410;2023-04-29T14:17:50;14.40;72.60
4501;DHT22;2263;54.654;9.410;2023-04-29T14:20:18;14.40;72.20
4501;DHT22;2263;54.654;9.410;2023-04-29T14:22:45;14.50;72.80
4501;DHT22;2263;54.654;9.410;2023-04-29T14:25:12;14.50;72.50
4501;DHT22;2263;54.654;9.410;2023-04-29T14:27:40;14.40;72.80
4501;DHT22;2263;54.654;9.410;2023-04-29T14:30:08;14.50;72.60
4501;DHT22;2263;54.654;9.410;2023-04-29T14:32:35;14.50;72.90
4501;DHT22;2263;54.654;9.410;2023-04-29T14:35:02;14.50;73.10
4501;DHT22;2263;54.654;9.410;2023-04-29T14:37:30;14.50;72.10
4501;DHT22;2263;54.654;9.410;2023-04-29T14:39:57;14.50;72.20
4501;DHT22;2263;54.654;9.410;2023-04-29T14:42:25;14.50;73.60
4501;DHT22;2263;54.654;9.410;2023-04-29T14:44:52;14.40;73.20
4501;DHT22;2263;54.654;9.410;2023-04-29T14:47:20;14.40;73.30
4501;DHT22;2263;54.654;9.410;2023-04-29T14:49:48;14.50;73.60
4501;DHT22;2263;54.654;9.410;2023-04-29T14:52:15;14.50;73.00
4501;DHT22;2263;54.654;9.410;2023-04-29T14:54:43;14.50;66.30
4501;DHT22;2263;54.654;9.410;2023-04-29T14:57:10;14.40;64.30
4501;DHT22;2263;54.654;9.410;2023-04-29T14:59:37;14.40;67.70
4501;DHT22;2263;54.654;9.410;2023-04-29T15:02:05;14.40;70.30
4501;DHT22;2263;54.654;9.410;2023-04-29T15:04:32;14.50;71.50
4501;DHT22;2263;54.654;9.410;2023-04-29T15:07:00;14.50;71.30
4501;DHT22;2263;54.654;9.410;2023-04-29T15:09:27;14.50;72.00
4501;DHT22;2263;54.654;9.410;2023-04-29T15:11:55;14.50;72.20
4501;DHT22;2263;54.654;9.410;2023-04-29T15:14:22;14.50;72.60
4501;DHT22;2263;54.654;9.410;2023-04-29T15:16:49;14.50;72.40
4501;DHT22;2263;54.654;9.410;2023-04-29T15:19:17;14.50;73.00
4501;DHT22;2263;54.654;9.410;2023-04-29T15:21:45;14.50;72.30
4501;DHT22;2263;54.654;9.410;2023-04-29T15:24:12;14.50;72.50
4501;DHT22;2263;54.654;9.410;2023-04-29T15:26:39;14.50;72.50
4501;DHT22;2263;54.654;9.410;2023-04-29T15:29:07;14.50;72.60
4501;DHT22;2263;54.654;9.410;2023-04-29T15:31:34;14.50;72.70
4501;DHT22;2263;54.654;9.410;2023-04-29T15:34:02;14.50;72.20
4501;DHT22;2263;54.654;9.410;2023-04-29T15:36:30;14.40;71.70
4501;DHT22;2263;54.654;9.410;2023-04-29T15:38:58;14.40;72.10
4501;DHT22;2263;54.654;9.410;2023-04-29T15:41:26;14.40;72.60
4501;DHT22;2263;54.654;9.410;2023-04-29T15:43:53;14.40;72.30
4501;DHT22;2263;54.654;9.410;2023-04-29T15:46:22;14.40;72.20
4501;DHT22;2263;54.654;9.410;2023-04-29T15:48:50;14.40;72.30
4501;DHT22;2263;54.654;9.410;2023-04-29T15:51:17;14.40;72.20
4501;DHT22;2263;54.654;9.410;2023-04-29T15:53:44;14.40;72.40
4501;DHT22;2263;54.654;9.410;2023-04-29T15:56:12;14.40;72.10
4501;DHT22;2263;54.654;9.410;2023-04-29T15:58:39;14.40;72.10
4501;DHT22;2263;54.654;9.410;2023-04-29T16:01:06;14.40;72.10
4501;DHT22;2263;54.654;9.410;2023-04-29T16:03:34;14.40;71.80
4501;DHT22;2263;54.654;9.410;2023-04-29T16:06:01;14.20;67.40
4501;DHT22;2263;54.654;9.410;2023-04-29T16:08:29;14.00;64.50
4501;DHT22;2263;54.654;9.410;2023-04-29T16:10:56;13.70;64.10
4501;DHT22;2263;54.654;9.410;2023-04-29T16:13:23;13.60;63.20
4501;DHT22;2263;54.654;9.410;2023-04-29T16:15:51;13.50;61.30
4501;DHT22;2263;54.654;9.410;2023-04-29T16:18:18;13.30;62.00
4501;DHT22;2263;54.654;9.410;2023-04-29T16:20:45;13.30;62.40
4501;DHT22;2263;54.654;9.410;2023-04-29T16:23:13;13.20;61.00
4501;DHT22;2263;54.654;9.410;2023-04-29T16:25:40;13.20;62.40
4501;DHT22;2263;54.654;9.410;2023-04-29T16:28:08;13.20;62.20
4501;DHT22;2263;54.654;9.410;2023-04-29T16:30:35;13.00;61.20
4501;DHT22;2263;54.654;9.410;2023-04-29T16:33:02;13.00;61.90
4501;DHT22;2263;54.654;9.410;2023-04-29T16:35:30;13.10;62.50
4501;DHT22;2263;54.654;9.410;2023-04-29T16:37:57;13.10;63.40
4501;DHT22;2263;54.654;9.410;2023-04-29T16:40:25;13.10;63.30
4501;DHT22;2263;54.654;9.410;2023-04-29T16:42:52;13.10;63.60
4501;DHT22;2263;54.654;9.410;2023-04-29T16:45:20;13.10;62.50
4501;DHT22;2263;54.654;9.410;2023-04-29T16:47:49;12.90;61.80
4501;DHT22;2263;54.654;9.410;2023-04-29T16:50:17;12.80;62.00
4501;DHT22;2263;54.654;9.410;2023-04-29T16:52:45;12.70;61.80